CheckWX is a tool to help pilots better visualize weather data.  It is not intended as a substitute for an official pre-flight weather briefing.

05:41:34 UTC

KIOW METAR
Iowa City Municipal Airport
Iowa City, Iowa, USA
Current

30 mins ago

KIOW 190512Z AUTO 29018G33KT 10SM SCT021 M17/M22 A3026 RMK AO2 PK WND 29033/0504 T11671217 $
Observed
Jan-19 @ 05:12 UTC
Wind
  • 290° at 18 KTS
  • Gusting to 33 KTS
Visibility
10 SM
Flight Rules
VFR
Cloud Levels
  • Scattered at 2,100' AGL
Temperature
-17°C / 1°F
Dewpoint
-22°C / -8°F
Humidity
65%
Altimeter
30.26" Hg
Pressure
1024.72 hPa
Previous

50 mins ago

KIOW 190452Z AUTO 29021G33KT 10SM BKN021 M17/M22 A3026 RMK AO2 PK WND 29033/0452 SLP263 T11671217 $
Observed
Jan-19 @ 04:52 UTC
Wind
  • 290° at 21 KTS
  • Gusting to 33 KTS
Visibility
10 SM
Flight Rules
MVFR
Cloud Levels
  • Broken at 2,100' AGL
Temperature
-17°C / 1°F
Dewpoint
-22°C / -8°F
Humidity
65%
Altimeter
30.26" Hg
Pressure
1024.72 hPa
Previous

1 hour ago

KIOW 190412Z AUTO 29019G27KT 10SM BKN021 M16/M22 A3026 RMK AO2 PK WND 28027/0411 T11611217 $
Observed
Jan-19 @ 04:12 UTC
Wind
  • 290° at 19 KTS
  • Gusting to 27 KTS
Visibility
10 SM
Flight Rules
MVFR
Cloud Levels
  • Broken at 2,100' AGL
Temperature
-16°C / 3°F
Dewpoint
-22°C / -8°F
Humidity
60%
Altimeter
30.26" Hg
Pressure
1024.72 hPa